Time;durP1;ratioP1;P1;durP2;ratioP2;P2;SDS_P1;SDS_P2;PMS_P1;PMS_P2;Temp;Humidity;BMP_temperature;BMP_pressure;BME280_temperature;BME280_humidity;BME280_pressure;Samples;Min_cycle;Max_cycle;Signal;HPM_P1;HPM_P2
2023/10/16 00:04:44;;;;;;;1.25;0.30;;;;;;;5.38;89.44;150022.22;10528158;28;20047;-71
2023/10/16 00:09:46;;;;;;;0.43;0.20;;;;;;;5.35;89.62;150014.50;10547854;28;20047;-71
2023/10/16 00:14:48;;;;;;;0.77;0.40;;;;;;;5.43;89.02;150035.09;10527145;28;20075;-71
2023/10/16 00:19:54;;;;;;;0.60;0.43;;;;;;;5.45;88.71;150040.25;10527003;28;20113;-71
2023/10/16 00:24:58;;;;;;;0.93;0.52;;;;;;;5.41;88.89;150028.69;10544436;28;20576;-70
2023/10/16 00:30:00;;;;;;;0.52;0.30;;;;;;;5.34;89.20;150011.94;10547139;28;20496;-70
2023/10/16 00:35:03;;;;;;;0.43;0.35;;;;;;;5.34;88.64;150010.66;10526640;28;20081;-70
2023/10/16 00:40:10;;;;;;;0.77;0.40;;;;;;;5.33;88.37;150009.38;10526048;28;20415;-70
2023/10/16 00:45:12;;;;;;;0.30;0.30;;;;;;;5.33;88.25;150009.38;10526266;28;20040;-70
2023/10/16 00:50:14;;;;;;;0.60;0.10;;;;;;;5.26;88.96;149991.38;10543413;28;20064;-70
2023/10/16 00:55:20;;;;;;;1.55;0.40;;;;;;;5.22;89.17;149982.41;10525109;28;20451;-70
2023/10/16 01:00:22;;;;;;;1.13;0.30;;;;;;;5.19;89.37;149973.41;10535533;28;20153;-70
2023/10/16 01:05:23;;;;;;;1.48;0.45;;;;;;;5.18;89.05;149972.13;10540477;28;20072;-70
2023/10/16 01:10:25;;;;;;;1.02;0.30;;;;;;;5.20;88.32;149975.94;10541169;28;20044;-70
2023/10/16 01:15:27;;;;;;;0.68;0.38;;;;;;;5.21;88.12;149978.50;10543758;28;20074;-70
2023/10/16 01:20:29;;;;;;;2.13;0.40;;;;;;;5.24;88.22;149986.25;10541234;28;20565;-70
2023/10/16 01:25:31;;;;;;;0.25;0.20;;;;;;;5.19;87.67;149973.41;10540594;28;20524;-70
2023/10/16 01:30:34;;;;;;;0.82;0.30;;;;;;;5.22;87.57;149981.06;10540315;28;20044;-70
2023/10/16 01:35:39;;;;;;;1.45;0.35;;;;;;;5.22;87.76;149982.41;10540482;28;20086;-70
2023/10/16 01:46:21;;;;;;;0.60;0.40;;;;;;;5.26;87.29;149991.38;10453331;28;20057;-70
2023/10/16 01:51:22;;;;;;;0.30;0.30;;;;;;;5.20;87.21;149977.22;10437012;28;20044;-70
2023/10/16 01:56:27;;;;;;;0.63;0.47;;;;;;;5.20;87.66;149977.22;10454402;28;20099;-70
2023/10/16 02:01:29;;;;;;;0.60;0.40;;;;;;;5.18;87.46;149970.78;10460863;28;20061;-70
2023/10/16 02:06:31;;;;;;;0.88;0.38;;;;;;;5.14;87.65;149960.53;10444908;28;20048;-69
2023/10/16 02:11:33;;;;;;;1.45;0.30;;;;;;;5.05;88.08;149939.97;10461221;28;20037;-70
2023/10/16 02:16:37;;;;;;;1.42;0.30;;;;;;;5.12;88.16;149956.66;10444716;28;20108;-71
2023/10/16 02:21:40;;;;;;;0.35;0.30;;;;;;;5.07;88.53;149943.81;10523706;28;20060;-71
2023/10/16 02:26:55;;;;;;;0.60;0.30;;;;;;;5.06;88.51;149941.25;10546934;28;20105;-71
2023/10/16 02:32:03;;;;;;;0.63;0.30;;;;;;;5.06;88.87;149941.25;10548504;28;20055;-70
2023/10/16 02:37:13;;;;;;;1.50;0.43;;;;;;;4.99;89.59;149924.50;10548793;28;20448;-70
2023/10/16 02:42:16;;;;;;;0.22;0.20;;;;;;;4.99;89.68;149924.50;10549001;28;20053;-71
2023/10/16 02:47:27;;;;;;;2.22;0.30;;;;;;;5.06;89.42;149942.53;10545952;28;20052;-71
2023/10/16 02:52:30;;;;;;;0.68;0.60;;;;;;;5.07;89.21;149943.81;10548629;28;20048;-71
2023/10/16 02:57:33;;;;;;;0.95;0.30;;;;;;;5.02;89.17;149930.97;10545721;28;20044;-70
2023/10/16 03:02:35;;;;;;;0.60;0.30;;;;;;;5.05;88.84;149939.97;10548702;28;20039;-71
2023/10/16 03:07:44;;;;;;;1.33;0.30;;;;;;;5.03;88.88;149934.78;10545810;28;20477;-71
2023/10/16 03:12:50;;;;;;;2.15;0.43;;;;;;;4.96;89.19;149916.84;10547389;28;20058;-71
2023/10/16 03:17:54;;;;;;;0.63;0.30;;;;;;;4.91;89.76;149903.94;10546616;28;20072;-71
2023/10/16 03:22:59;;;;;;;2.42;0.63;;;;;;;4.92;89.59;149906.53;10547516;28;20403;-71
2023/10/16 03:28:05;;;;;;;1.52;0.30;;;;;;;4.93;89.37;149909.09;10545499;28;20071;-70
2023/10/16 03:33:07;;;;;;;0.50;0.22;;;;;;;4.92;89.31;149905.25;10544486;28;20052;-71
2023/10/16 03:38:12;;;;;;;2.65;0.52;;;;;;;4.85;89.40;149888.53;10544420;28;20119;-70
2023/10/16 03:43:14;;;;;;;3.25;0.52;;;;;;;4.88;89.34;149894.97;10545675;28;20468;-71
2023/10/16 03:48:17;;;;;;;2.30;0.50;;;;;;;4.86;89.06;149889.81;10547154;28;20040;-70
2023/10/16 03:53:20;;;;;;;1.40;0.40;;;;;;;4.90;89.19;149901.38;10545476;28;20044;-71
2023/10/16 03:58:21;;;;;;;1.17;0.40;;;;;;;4.89;89.26;149898.81;10543396;28;20115;-71
2023/10/16 04:03:26;;;;;;;1.00;0.30;;;;;;;4.92;88.46;149906.53;10545786;28;20073;-71
2023/10/16 04:08:30;;;;;;;0.60;0.30;;;;;;;4.91;88.39;149902.66;10547463;28;20042;-71
2023/10/16 04:13:32;;;;;;;3.40;0.47;;;;;;;4.87;88.40;149893.69;10545244;28;20499;-70
2023/10/16 04:18:34;;;;;;;4.28;0.40;;;;;;;4.80;88.58;149875.69;10543911;28;20047;-70
2023/10/16 04:23:52;;;;;;;1.00;0.32;;;;;;;4.82;88.74;149880.78;10543179;28;20040;-71
2023/10/16 04:50:27;;;;;;;0.90;0.60;;;;;;;4.63;90.82;149831.97;10545538;28;19920;-70
2023/10/16 05:00:57;;;;;;;0.65;0.55;;;;;;;4.69;89.64;149848.72;10542624;28;20051;-70
2023/10/16 05:06:11;;;;;;;0.73;0.60;;;;;;;4.73;89.41;149857.66;10542668;28;20118;-70
2023/10/16 05:16:38;;;;;;;0.70;0.50;;;;;;;4.70;90.04;149851.28;10541654;28;20051;-70
2023/10/16 06:15:01;;;;;;;0.95;0.50;;;;;;;4.88;88.76;149894.97;10539952;28;20044;-70
2023/10/16 06:20:04;;;;;;;1.00;0.60;;;;;;;5.03;87.41;149933.53;10540183;28;20044;-70
2023/10/16 06:25:10;;;;;;;1.13;0.50;;;;;;;5.00;87.65;149925.78;10539740;28;20100;-70
2023/10/16 06:30:19;;;;;;;1.75;0.68;;;;;;;5.19;86.30;149973.41;10538659;28;20036;-70
2023/10/16 06:35:20;;;;;;;1.08;0.57;;;;;;;5.20;85.88;149977.22;10539156;28;20044;-70
2023/10/16 06:40:25;;;;;;;1.73;0.80;;;;;;;5.27;86.77;149993.97;10539451;28;20094;-70
2023/10/16 06:45:40;;;;;;;1.13;0.65;;;;;;;5.36;85.88;150015.78;10541213;28;20098;-70
2023/10/16 06:56:30;;;;;;;1.23;0.57;;;;;;;5.48;86.15;150047.94;10460591;28;20051;-71
2023/10/16 07:01:34;;;;;;;1.95;0.60;;;;;;;5.55;84.83;150064.69;10462214;28;20044;-71
2023/10/16 07:06:38;;;;;;;2.28;0.80;;;;;;;5.65;84.69;150089.13;10458967;28;20133;-70
2023/10/16 07:11:42;;;;;;;2.33;1.10;;;;;;;5.82;83.49;150132.84;10458664;28;20063;-70
2023/10/16 07:16:44;;;;;;;1.67;0.60;;;;;;;5.73;85.49;150110.97;10457781;28;20041;-70
2023/10/16 07:21:48;;;;;;;1.42;0.40;;;;;;;5.86;83.15;150143.16;10441978;28;20529;-71
2023/10/16 07:26:50;;;;;;;2.38;0.77;;;;;;;5.92;84.48;150157.34;10454227;28;20049;-70
2023/10/16 07:31:54;;;;;;;2.33;0.52;;;;;;;6.02;82.94;150184.38;10512475;28;20056;-70
2023/10/16 07:36:56;;;;;;;0.60;0.57;;;;;;;6.09;82.72;150201.09;10544635;28;20043;-70
2023/10/16 07:41:59;;;;;;;1.15;0.52;;;;;;;6.12;83.50;150207.53;10545191;28;20044;-70
2023/10/16 07:47:01;;;;;;;1.15;0.70;;;;;;;6.19;84.05;150225.53;10545425;28;20117;-70
2023/10/16 07:52:05;;;;;;;1.67;0.50;;;;;;;6.13;83.42;150211.38;10544074;28;20050;-69
2023/10/16 07:57:08;;;;;;;1.58;0.52;;;;;;;6.17;83.55;150221.69;10543710;28;20036;-69
2023/10/16 08:02:17;;;;;;;1.25;0.40;;;;;;;6.43;82.69;150287.31;10544628;28;20044;-69
2023/10/16 08:07:34;;;;;;;0.60;0.50;;;;;;;6.65;81.11;150341.38;10544175;28;20039;-69
2023/10/16 08:12:36;;;;;;;1.63;0.40;;;;;;;6.71;82.00;150356.81;10525167;28;20067;-69
2023/10/16 08:17:38;;;;;;;1.02;0.55;;;;;;;6.98;82.27;150425.03;10543511;28;20063;-70
2023/10/16 08:22:43;;;;;;;1.33;0.65;;;;;;;7.31;80.84;150508.75;10543614;28;20047;-70
2023/10/16 08:27:48;;;;;;;1.58;0.40;;;;;;;7.39;78.90;150529.34;10543236;28;20036;-69
2023/10/16 08:37:57;;;;;;;0.95;0.47;;;;;;;7.48;79.84;150551.22;10542213;28;20046;-70
2023/10/16 08:43:00;;;;;;;2.58;0.63;;;;;;;7.65;77.68;150593.75;10543708;28;20101;-68
2023/10/16 08:48:08;;;;;;;0.70;0.43;;;;;;;7.78;78.98;150628.53;10542625;28;20043;-70
2023/10/16 08:58:40;;;;;;;1.83;0.52;;;;;;;8.00;77.86;150683.94;10541969;28;20119;-69
2023/10/16 09:04:05;;;;;;;1.00;0.50;;;;;;;8.00;77.58;150683.94;10542061;28;20484;-69
2023/10/16 09:09:13;;;;;;;0.57;0.38;;;;;;;8.22;77.92;150739.34;10541947;28;20473;-69
2023/10/16 09:14:20;;;;;;;0.30;0.20;;;;;;;8.50;74.21;150809.00;10541747;28;20384;-69
2023/10/16 09:19:35;;;;;;;;;;;;;;;8.49;74.68;150807.72;10542014;28;20079;-70
2023/10/16 09:24:38;;;;;;;1.40;0.45;;;;;;;8.39;76.75;150780.66;10541082;28;19927;-69
2023/10/16 09:29:46;;;;;;;1.73;0.98;;;;;;;8.41;75.60;150787.13;10540618;28;20044;-70
2023/10/16 09:34:51;;;;;;;;;;;;;;;8.70;74.20;150860.59;10541034;28;20050;-70
2023/10/16 09:39:53;;;;;;;1.17;0.40;;;;;;;8.90;75.28;150909.56;10540151;28;19945;-70
2023/10/16 09:45:09;;;;;;;2.47;1.17;;;;;;;9.16;73.63;150976.63;10539000;28;20040;-70
2023/10/16 09:50:18;;;;;;;0.90;0.50;;;;;;;9.17;72.03;150979.25;10540374;28;20047;-69
2023/10/16 09:55:22;;;;;;;2.83;0.60;;;;;;;9.28;71.35;151006.31;10539845;28;20044;-69
2023/10/16 10:00:32;;;;;;;1.27;0.65;;;;;;;9.31;72.35;151015.34;10540625;28;20109;-70
2023/10/16 10:11:16;;;;;;;1.50;0.65;;;;;;;9.41;70.36;151038.56;10539569;28;20036;-69
2023/10/16 10:16:35;;;;;;;1.92;0.40;;;;;;;9.42;71.72;151041.13;10560579;28;20395;-70
2023/10/16 10:21:44;;;;;;;1.42;0.40;;;;;;;9.48;69.84;151057.94;10541592;28;20145;-70
2023/10/16 10:26:50;;;;;;;1.17;0.60;;;;;;;9.64;69.60;151096.59;10550719;28;20040;-70
2023/10/16 10:31:52;;;;;;;1.73;0.65;;;;;;;9.77;69.61;151130.16;10511946;28;20040;-70
2023/10/16 10:36:54;;;;;;;1.40;0.40;;;;;;;10.23;66.80;151246.34;10527199;28;20040;-70
2023/10/16 10:42:08;;;;;;;1.40;0.47;;;;;;;10.63;64.75;151347.09;10520435;28;20049;-71
2023/10/16 10:47:30;;;;;;;1.67;0.40;;;;;;;11.11;63.73;151471.06;10507284;28;20037;-70
2023/10/16 10:52:32;;;;;;;3.80;0.35;;;;;;;10.96;63.37;151432.28;10508671;28;20045;-70
2023/10/16 10:57:37;;;;;;;0.63;0.40;;;;;;;10.50;65.18;151316.09;10511007;28;20041;-69
2023/10/16 11:08:25;;;;;;;3.25;1.02;;;;;;;9.97;65.55;151180.50;10417268;28;20125;-70
2023/10/16 11:13:27;;;;;;;1.10;0.43;;;;;;;9.64;67.71;151097.88;10417522;28;20154;-68
2023/10/16 11:18:29;;;;;;;2.22;0.70;;;;;;;9.67;68.11;151105.66;10417240;28;20057;-68
2023/10/16 11:23:32;;;;;;;1.48;0.80;;;;;;;10.52;69.15;151319.94;10417415;28;20080;-67
2023/10/16 11:28:37;;;;;;;4.47;2.47;;;;;;;10.98;63.73;151437.47;10416571;28;20113;-68
2023/10/16 11:34:00;;;;;;;1.55;0.50;;;;;;;10.45;66.58;151301.91;10415983;28;20075;-67
2023/10/16 11:39:03;;;;;;;1.77;0.70;;;;;;;10.83;64.74;151400.00;10476329;28;20044;-66
2023/10/16 11:44:13;;;;;;;1.40;0.60;;;;;;;10.98;61.70;151436.16;10545272;28;20085;-66
2023/10/16 11:54:25;;;;;;;1.23;0.70;;;;;;;10.66;61.51;151354.81;10545975;28;20079;-65
2023/10/16 11:59:28;;;;;;;2.15;0.25;;;;;;;10.74;62.78;151375.47;10544127;28;20044;-68
2023/10/16 12:04:30;;;;;;;0.68;0.60;;;;;;;10.57;63.18;151334.13;10543796;28;20056;-68
2023/10/16 12:09:38;;;;;;;2.47;2.28;;;;;;;10.46;64.15;151305.75;10531755;28;20415;-66
2023/10/16 12:14:40;;;;;;;2.40;1.37;;;;;;;10.33;63.14;151272.19;10503235;28;20051;-68
2023/10/16 12:19:42;;;;;;;2.55;1.27;;;;;;;10.27;64.22;151258.00;10502376;28;20044;-68
2023/10/16 12:24:43;;;;;;;5.90;3.33;;;;;;;10.27;63.47;151258.00;10501915;28;20048;-68
2023/10/16 12:29:45;;;;;;;4.28;1.75;;;;;;;10.30;64.11;151264.44;10503362;28;20044;-68
2023/10/16 12:34:49;;;;;;;0.57;0.50;;;;;;;10.14;66.45;151223.06;10502162;28;20040;-68
2023/10/16 12:39:53;;;;;;;2.35;1.10;;;;;;;10.17;65.95;151232.09;10502928;28;20454;-68
2023/10/16 12:44:55;;;;;;;0.77;0.52;;;;;;;9.95;66.77;151175.31;10500752;28;20097;-68
2023/10/16 12:49:56;;;;;;;0.73;0.38;;;;;;;10.02;66.73;151194.69;10515765;28;20040;-68
2023/10/16 12:55:01;;;;;;;1.75;0.60;;;;;;;10.10;66.22;151214.06;10559920;28;20044;-68
2023/10/16 13:00:13;;;;;;;0.50;0.35;;;;;;;10.00;65.04;151189.50;10566605;28;20072;-68
2023/10/16 13:05:17;;;;;;;0.93;0.40;;;;;;;10.07;64.96;151207.59;10577961;28;20393;-69
2023/10/16 13:10:20;;;;;;;0.50;0.50;;;;;;;9.86;67.07;151154.66;10525943;28;20052;-68
2023/10/16 13:15:25;;;;;;;0.77;0.32;;;;;;;10.07;66.22;151206.31;10533257;28;20043;-68
2023/10/16 13:20:27;;;;;;;2.25;0.35;;;;;;;10.11;64.33;151216.63;10545075;28;20040;-67
2023/10/16 13:25:34;;;;;;;1.20;0.50;;;;;;;10.16;65.17;151228.25;10537502;28;20135;-68
2023/10/16 13:30:36;;;;;;;0.97;0.30;;;;;;;10.13;64.06;151221.78;10521184;28;20051;-68
2023/10/16 13:35:41;;;;;;;1.10;0.43;;;;;;;10.03;65.14;151197.25;10537824;28;20290;-69
2023/10/16 13:40:44;;;;;;;0.98;0.30;;;;;;;10.06;64.67;151205.03;10501033;28;20044;-69
2023/10/16 13:45:46;;;;;;;1.55;0.60;;;;;;;10.41;64.21;151292.84;10516636;28;20123;-69
2023/10/16 13:50:49;;;;;;;1.48;0.47;;;;;;;10.58;63.21;151335.41;10541660;28;20506;-68
2023/10/16 13:55:54;;;;;;;0.60;0.40;;;;;;;10.41;65.28;151292.84;10542167;28;20036;-68
2023/10/16 14:00:57;;;;;;;1.65;0.70;;;;;;;10.40;63.29;151290.22;10540620;28;20089;-68
2023/10/16 14:05:59;;;;;;;2.05;0.45;;;;;;;10.42;63.04;151295.44;10499066;28;20048;-68
2023/10/16 14:11:02;;;;;;;0.30;0.30;;;;;;;10.46;62.63;151305.75;10498878;28;20049;-68
2023/10/16 14:16:18;;;;;;;0.50;0.30;;;;;;;10.47;62.64;151308.31;10499161;28;20090;-68
2023/10/16 14:21:22;;;;;;;0.65;0.40;;;;;;;10.36;62.88;151279.94;10500526;28;20066;-68
2023/10/16 14:26:24;;;;;;;1.02;0.60;;;;;;;10.21;65.24;151242.44;10498838;28;20111;-68
2023/10/16 14:31:28;;;;;;;1.27;0.40;;;;;;;10.18;64.42;151234.72;10480997;28;20058;-67
2023/10/16 14:36:31;;;;;;;1.52;0.52;;;;;;;10.10;64.72;151214.06;10511824;28;20043;-68
2023/10/16 14:41:33;;;;;;;1.30;0.60;;;;;;;9.98;66.03;151184.38;10542194;28;20032;-68
2023/10/16 14:46:36;;;;;;;3.15;0.50;;;;;;;9.84;68.21;151149.53;10539710;28;20067;-66
2023/10/16 14:51:39;;;;;;;1.35;0.60;;;;;;;9.73;71.05;151121.13;10539992;28;20040;-67
2023/10/16 14:56:44;;;;;;;3.70;0.70;;;;;;;9.47;78.14;151055.31;10539737;28;20046;-68
2023/10/16 15:01:46;;;;;;;1.90;0.70;;;;;;;8.88;87.55;150905.72;10541502;28;20058;-67
2023/10/16 15:06:49;;;;;;;0.70;0.70;;;;;;;8.85;88.94;150897.97;10541547;28;20083;-68
2023/10/16 15:11:51;;;;;;;1.75;0.88;;;;;;;8.65;91.14;150847.69;10545788;28;20051;-69
2023/10/16 15:16:54;;;;;;;2.15;0.68;;;;;;;8.80;89.07;150885.06;10546500;28;20048;-68
2023/10/16 15:21:58;;;;;;;0.77;0.70;;;;;;;8.68;93.42;150855.44;10547124;28;20039;-68
2023/10/16 15:27:00;;;;;;;2.20;1.13;;;;;;;8.56;94.38;150825.78;10546752;28;20073;-69
2023/10/16 15:32:02;;;;;;;1.17;0.82;;;;;;;8.53;95.99;150818.03;10527898;28;20047;-69
2023/10/16 15:37:04;;;;;;;1.00;0.90;;;;;;;8.65;97.17;150846.41;10544452;28;20119;-70
2023/10/16 15:42:10;;;;;;;1.30;1.20;;;;;;;8.49;99.37;150807.72;10546471;28;20044;-70
2023/10/16 15:47:12;;;;;;;2.70;1.20;;;;;;;8.72;98.06;150864.44;10546616;28;20385;-70
2023/10/16 15:52:14;;;;;;;1.45;1.08;;;;;;;8.56;97.18;150825.78;10545318;28;20051;-70
2023/10/16 15:57:16;;;;;;;1.45;1.15;;;;;;;8.44;98.22;150793.53;10544421;28;20044;-69
2023/10/16 16:02:19;;;;;;;2.17;1.50;;;;;;;8.40;98.83;150784.50;10545257;28;20052;-70
2023/10/16 16:07:22;;;;;;;2.50;1.55;;;;;;;8.32;99.56;150765.16;10556774;28;20067;-71
2023/10/16 16:12:25;;;;;;;0.95;0.90;;;;;;;8.31;99.21;150761.25;10555477;28;20364;-73
2023/10/16 16:17:35;;;;;;;2.47;1.08;;;;;;;8.24;100.00;150743.25;10556554;28;20397;-71
2023/10/16 16:22:38;;;;;;;2.28;1.40;;;;;;;8.19;100.00;150730.31;10559555;28;20040;-73
2023/10/16 16:27:47;;;;;;;1.48;1.38;;;;;;;8.17;100.00;150725.19;10546736;28;20442;-70
2023/10/16 16:32:49;;;;;;;2.17;1.15;;;;;;;8.14;100.00;150718.72;10541689;28;20059;-70
2023/10/16 16:37:56;;;;;;;1.10;1.00;;;;;;;8.11;100.00;150711.03;10543701;28;20420;-69
2023/10/16 16:42:58;;;;;;;1.10;1.00;;;;;;;8.09;100.00;150707.13;10542556;28;20044;-70
2023/10/16 16:47:59;;;;;;;1.50;1.40;;;;;;;8.03;100.00;150690.41;10542711;28;20532;-71
2023/10/16 16:53:03;;;;;;;1.88;1.30;;;;;;;7.97;100.00;150676.22;10541971;28;20036;-70
2023/10/16 16:58:05;;;;;;;1.80;1.60;;;;;;;7.92;100.00;150663.31;10525844;28;20050;-71
2023/10/16 17:03:07;;;;;;;1.65;1.42;;;;;;;7.94;100.00;150667.22;10541451;28;20397;-70
2023/10/16 17:08:09;;;;;;;1.73;1.58;;;;;;;7.97;100.00;150674.91;10540130;28;20047;-70
2023/10/16 17:13:10;;;;;;;1.65;1.55;;;;;;;7.98;100.00;150678.81;10540976;28;20381;-70
2023/10/16 17:18:14;;;;;;;2.30;2.03;;;;;;;8.29;100.00;150756.13;10544335;28;20108;-70
2023/10/16 17:23:16;;;;;;;3.05;2.75;;;;;;;8.26;100.00;150749.66;10541932;28;20071;-70
2023/10/16 17:28:18;;;;;;;2.17;1.95;;;;;;;8.11;100.00;150709.75;10539236;28;20044;-70
2023/10/16 17:33:20;;;;;;;2.85;2.42;;;;;;;8.02;100.00;150687.84;10540792;28;20044;-70
2023/10/16 17:38:23;;;;;;;2.65;2.45;;;;;;;8.00;100.00;150683.94;10546622;28;20064;-70
2023/10/16 17:43:26;;;;;;;3.42;3.13;;;;;;;7.98;100.00;150677.53;10550200;28;20419;-71
2023/10/16 17:48:29;;;;;;;3.05;2.25;;;;;;;7.91;100.00;150660.75;10551425;28;20044;-70
2023/10/16 17:53:32;;;;;;;2.83;2.17;;;;;;;7.82;100.00;150638.84;10550140;28;20569;-70
2023/10/16 17:58:35;;;;;;;2.35;2.05;;;;;;;7.91;100.00;150659.47;10547373;28;20040;-71
2023/10/16 18:03:37;;;;;;;4.10;2.25;;;;;;;7.80;100.00;150633.72;10549180;28;20380;-70
2023/10/16 18:08:43;;;;;;;2.65;1.85;;;;;;;7.77;100.00;150624.69;10542902;28;20032;-70
2023/10/16 18:13:46;;;;;;;2.10;1.90;;;;;;;7.76;100.00;150622.13;10541094;28;20050;-71
2023/10/16 18:18:47;;;;;;;2.50;2.03;;;;;;;7.78;100.00;150628.53;10540448;28;20071;-71
2023/10/16 18:23:49;;;;;;;2.45;2.25;;;;;;;7.74;100.00;150616.94;10543095;28;20071;-71
2023/10/16 18:28:51;;;;;;;2.50;1.63;;;;;;;7.76;100.00;150623.41;10549480;28;20036;-71
2023/10/16 18:33:53;;;;;;;2.33;1.98;;;;;;;7.78;100.00;150628.53;10543923;28;20046;-71
2023/10/16 18:38:55;;;;;;;2.50;2.00;;;;;;;7.87;100.00;150649.16;10542301;28;20078;-71
2023/10/16 18:43:57;;;;;;;2.15;1.95;;;;;;;8.01;100.00;150685.22;10547004;28;20450;-70
2023/10/16 18:48:59;;;;;;;2.90;2.15;;;;;;;7.91;100.00;150660.75;10551885;28;20048;-71
2023/10/16 18:54:01;;;;;;;2.10;1.90;;;;;;;7.82;100.00;150637.56;10550363;28;20048;-70
2023/10/16 18:59:03;;;;;;;2.55;1.83;;;;;;;7.76;100.00;150622.13;10550806;28;20082;-71
2023/10/16 19:04:08;;;;;;;3.42;3.13;;;;;;;7.73;100.00;150614.38;10549525;28;20416;-72
2023/10/16 19:09:10;;;;;;;2.30;2.10;;;;;;;7.72;100.00;150611.81;10551597;28;20047;-70
2023/10/16 19:14:12;;;;;;;2.40;2.00;;;;;;;8.08;100.00;150704.56;10549628;28;20048;-71
2023/10/16 19:19:14;;;;;;;3.22;1.90;;;;;;;8.18;99.33;150729.03;10548923;28;20040;-70
2023/10/16 19:24:19;;;;;;;2.45;1.30;;;;;;;8.20;98.29;150734.22;10549060;28;20082;-71
2023/10/16 19:29:21;;;;;;;1.98;1.30;;;;;;;8.05;97.81;150695.53;10550854;28;20036;-71
2023/10/16 19:34:23;;;;;;;1.40;0.90;;;;;;;8.04;97.37;150692.97;10550449;28;20083;-71
2023/10/16 19:39:25;;;;;;;1.67;1.20;;;;;;;7.97;97.70;150674.91;10548863;28;20040;-72
2023/10/16 19:44:27;;;;;;;1.98;1.10;;;;;;;8.04;97.41;150694.25;10547726;28;20082;-71
2023/10/16 19:49:29;;;;;;;1.73;1.10;;;;;;;8.17;96.38;150725.19;10547846;28;20392;-71
2023/10/16 19:54:32;;;;;;;1.67;0.93;;;;;;;8.06;95.84;150698.16;10550897;28;20043;-70
2023/10/16 19:59:34;;;;;;;1.10;1.00;;;;;;;8.06;95.79;150698.16;10548101;28;20089;-71
2023/10/16 20:04:36;;;;;;;2.30;1.20;;;;;;;7.84;99.29;150642.72;10548045;28;20044;-69
2023/10/16 20:09:39;;;;;;;1.40;1.10;;;;;;;7.66;100.00;150596.31;10546871;28;20118;-71
2023/10/16 20:14:43;;;;;;;1.27;0.90;;;;;;;7.57;100.00;150575.75;10551720;28;20131;-71
2023/10/16 20:19:46;;;;;;;2.08;1.38;;;;;;;7.82;98.22;150638.84;10547967;28;20036;-70
2023/10/16 20:24:49;;;;;;;2.70;1.30;;;;;;;7.81;97.75;150636.28;10548971;28;20032;-71
2023/10/16 20:29:52;;;;;;;1.40;1.20;;;;;;;7.89;96.80;150655.59;10548200;28;20114;-71
2023/10/16 20:34:55;;;;;;;2.72;1.20;;;;;;;7.96;95.11;150673.63;10549447;28;20044;-70
2023/10/16 20:40:06;;;;;;;1.48;1.25;;;;;;;8.04;93.95;150692.97;10549142;28;20089;-71
2023/10/16 20:45:13;;;;;;;1.58;0.95;;;;;;;8.15;93.59;150720.06;10548335;28;20048;-72
2023/10/16 20:50:31;;;;;;;2.57;1.10;;;;;;;8.03;93.70;150690.41;10546140;28;20560;-71
2023/10/16 20:55:33;;;;;;;6.78;0.88;;;;;;;8.09;92.59;150705.84;10548021;28;20639;-71
2023/10/16 21:00:37;;;;;;;1.83;0.93;;;;;;;7.88;94.16;150653.03;10549141;28;20043;-71
2023/10/16 21:05:39;;;;;;;1.17;1.00;;;;;;;7.59;97.72;150579.59;10543155;28;20079;-70
2023/10/16 21:10:41;;;;;;;1.55;1.02;;;;;;;7.73;95.14;150614.38;10544483;28;20040;-71
2023/10/16 21:15:43;;;;;;;2.80;1.00;;;;;;;7.58;96.52;150578.31;10543392;28;20109;-71
2023/10/16 21:20:45;;;;;;;1.90;1.20;;;;;;;7.49;98.19;150553.84;10546982;28;20040;-70
2023/10/16 21:25:46;;;;;;;1.48;1.10;;;;;;;7.28;100.00;150501.03;10544421;28;20044;-70
2023/10/16 21:30:53;;;;;;;1.48;1.23;;;;;;;7.16;100.00;150470.09;10544488;28;20384;-70
2023/10/16 21:36:04;;;;;;;1.42;1.08;;;;;;;7.11;100.00;150457.22;10541607;28;20051;-71
2023/10/16 21:41:06;;;;;;;2.85;1.35;;;;;;;7.06;100.00;150446.94;10544665;28;20098;-70
2023/10/16 21:46:08;;;;;;;2.28;1.98;;;;;;;7.10;100.00;150454.66;10542907;28;20453;-69
2023/10/16 21:51:10;;;;;;;2.95;1.50;;;;;;;7.08;100.00;150450.78;10542906;28;20123;-71
2023/10/16 21:56:12;;;;;;;2.78;1.40;;;;;;;6.97;100.00;150422.47;10543290;28;20131;-70
2023/10/16 22:01:16;;;;;;;2.17;1.02;;;;;;;7.10;100.00;150455.94;10542468;28;20405;-70
2023/10/16 22:06:18;;;;;;;1.73;1.20;;;;;;;7.02;100.00;150436.63;10544074;28;20111;-70
2023/10/16 22:11:20;;;;;;;2.00;1.38;;;;;;;6.82;100.00;150386.44;10540618;28;20036;-70
2023/10/16 22:16:22;;;;;;;2.15;1.75;;;;;;;6.94;100.00;150414.72;10544910;28;20075;-70
2023/10/16 22:21:24;;;;;;;2.38;1.67;;;;;;;7.06;100.00;150445.66;10549646;28;20036;-70
2023/10/16 22:26:26;;;;;;;1.20;1.08;;;;;;;7.08;100.00;150450.78;10551211;28;20048;-70
2023/10/16 22:31:29;;;;;;;1.65;1.40;;;;;;;6.86;100.00;150394.13;10549928;28;20401;-70
2023/10/16 22:36:32;;;;;;;2.22;1.92;;;;;;;6.85;100.00;150391.56;10550057;28;20093;-70
2023/10/16 22:41:34;;;;;;;2.75;1.75;;;;;;;6.72;100.00;150360.66;10550168;28;20043;-71
2023/10/16 22:46:36;;;;;;;1.58;1.35;;;;;;;6.63;100.00;150336.19;10534119;28;20052;-71
2023/10/16 22:51:38;;;;;;;1.60;1.45;;;;;;;6.38;100.00;150274.44;10549109;28;20054;-71
2023/10/16 22:56:41;;;;;;;2.28;1.60;;;;;;;6.25;100.00;150241.00;10548027;28;20500;-70
2023/10/16 23:01:44;;;;;;;1.75;1.20;;;;;;;6.26;100.00;150243.56;10548930;28;20066;-70
2023/10/16 23:06:49;;;;;;;2.20;1.48;;;;;;;6.26;100.00;150243.56;10547025;28;20436;-70
2023/10/16 23:11:59;;;;;;;2.10;1.53;;;;;;;6.34;100.00;150264.16;10549813;28;20054;-70
2023/10/16 23:17:02;;;;;;;1.80;1.30;;;;;;;6.37;100.00;150271.84;10545843;28;20046;-71
2023/10/16 23:22:05;;;;;;;2.53;1.50;;;;;;;6.31;100.00;150256.41;10548032;28;20040;-70
2023/10/16 23:27:09;;;;;;;2.90;1.58;;;;;;;6.30;100.00;150253.84;10546776;28;20090;-70
2023/10/16 23:32:11;;;;;;;1.55;1.30;;;;;;;6.30;100.00;150253.84;10549049;28;20048;-70
2023/10/16 23:37:14;;;;;;;2.97;1.58;;;;;;;6.32;100.00;150260.25;10546254;28;20518;-69
2023/10/16 23:42:16;;;;;;;1.98;1.42;;;;;;;6.40;100.00;150279.56;10547858;28;20101;-69
2023/10/16 23:47:21;;;;;;;1.85;1.33;;;;;;;6.42;100.00;150284.75;10547090;28;20056;-70
2023/10/16 23:52:24;;;;;;;1.85;1.50;;;;;;;6.13;100.00;150211.38;10548344;28;20050;-70
2023/10/16 23:57:42;;;;;;;1.40;1.25;;;;;;;6.12;100.00;150207.53;10547145;28;20036;-69
